Date,TemperatureHighF,TemperatureAvgF,TemperatureLowF,DewpointHighF,DewpointAvgF,DewpointLowF,HumidityHigh,HumidityAvg,HumidityLow,PressureMaxIn,PressureMinIn,WindSpeedMaxMPH,WindSpeedAvgMPH,GustSpeedMaxMPH,PrecipitationSumIn
2013-1-1,65.7,52.8,47.3,44.1,42.0,38.5,83,68,43,29.53,29.50,8,1,8,0.00
2013-1-2,56.8,52.8,50.2,49.9,46.9,43.7,92,81,68,29.53,29.47,12,2,12,0.00
2013-1-3,73.0,59.2,50.0,45.2,39.9,37.2,69,50,37,29.88,29.82,3,1,3,0.00
2013-1-4,66.7,61.8,58.3,46.6,43.3,40.6,55,51,45,29.79,29.76,3,1,3,0.00
2013-1-5,63.1,56.1,47.3,48.4,43.9,42.2,85,65,51,29.56,29.47,5,1,5,0.00
2013-1-6,69.6,61.4,51.4,45.9,41.6,37.3,75,50,33,29.59,29.50,6,2,6,0.00
2013-1-7,74.3,62.6,51.3,48.5,39.3,32.9,84,44,29,29.59,29.50,5,1,5,0.00
2013-1-8,65.1,55.1,47.3,39.8,37.3,32.6,75,52,36,29.68,29.62,4,1,4,0.00
2013-1-9,61.7,54.2,47.8,48.2,42.8,39.7,82,66,55,29.59,29.53,4,0,4,0.00
2013-1-10,58.5,52.7,50.4,49.1,46.0,39.7,92,79,55,29.41,29.20,13,2,13,0.00
2013-1-11,62.8,52.2,48.6,49.8,45.6,41.2,95,80,56,29.23,29.14,13,2,13,0.00
2013-1-12,52.5,52.1,50.5,45.3,43.3,42.9,82,72,70,29.44,29.44,7,1,7,0.00
2013-1-13,57.4,55.8,50.0,53.2,49.5,40.5,93,80,56,29.38,29.26,23,8,23,0.00
2013-1-14,55.6,53.7,50.0,50.6,48.3,43.1,92,82,72,29.32,29.26,13,5,13,0.00
2013-1-15,56.8,54.5,51.1,47.8,45.0,43.0,85,71,63,29.29,29.23,3,0,3,0.00
2013-1-16,47.3,43.4,39.0,36.0,33.5,31.1,87,70,55,28.97,28.88,12,4,12,0.00
2013-1-17,53.2,45.0,41.2,49.4,42.8,35.4,98,92,73,28.82,28.70,23,2,23,0.00
2013-1-18,54.3,45.1,40.1,38.7,35.5,32.3,89,70,50,28.94,28.73,3,0,3,0.00
2013-1-19,51.8,48.6,47.3,50.0,43.3,32.5,96,83,55,29.06,28.97,15,4,15,0.00
2013-1-20,57.2,56.6,56.3,55.5,55.0,54.3,96,94,90,28.94,28.91,8,3,8,0.00
2013-1-21,56.1,51.6,50.0,52.8,46.9,41.8,97,84,70,28.94,28.82,13,4,13,0.00
2013-1-22,52.2,50.0,47.7,40.4,39.6,38.9,73,67,64,29.12,29.06,11,7,11,0.00
2013-1-23,56.8,48.3,43.5,45.8,43.5,37.0,96,85,58,29.20,29.03,15,2,15,0.00
2013-1-24,57.9,51.5,48.4,48.8,43.6,39.3,88,75,56,28.82,28.76,5,1,5,0.00
2013-1-25,59.2,52.2,44.6,37.9,34.2,31.1,67,51,42,28.97,28.82,11,3,11,0.00
2013-1-26,48.2,46.0,43.9,30.5,28.5,26.5,51,50,49,29.17,29.09,6,2,6,0.00
2013-1-27,65.7,53.1,41.5,35.8,32.0,28.6,71,46,32,29.38,29.32,8,2,8,0.00
2013-1-28,51.8,51.3,50.7,35.7,35.5,35.2,56,55,54,29.26,29.26,5,3,5,0.00
2013-1-29,62.1,61.1,59.9,40.3,39.2,38.2,46,44,42,29.59,29.59,6,2,6,0.00
2013-1-30,65.1,54.3,49.8,48.5,45.9,43.6,86,75,51,29.59,29.56,8,1,8,0.00
2013-1-31,70.2,61.2,50.4,53.3,49.0,45.3,88,66,50,29.62,29.56,7,1,7,0.00
2013-2-1,68.7,59.6,55.0,55.4,50.3,46.5,94,72,53,29.47,29.32,10,3,10,0.00
2013-2-2,56.3,56.1,56.1,54.1,53.9,53.7,93,92,91,28.73,28.73,18,9,18,0.00
2013-2-3,51.6,46.4,45.1,42.7,33.9,31.2,73,62,58,29.23,28.97,9,5,9,0.00
2013-2-4,66.0,55.2,45.1,34.1,31.1,26.9,62,41,25,29.53,29.47,6,1,6,0.00
2013-2-5,63.0,53.5,48.4,49.1,41.4,37.7,87,64,46,29.44,29.26,12,5,12,0.00
2013-2-6,58.1,50.5,46.2,50.4,38.6,33.3,82,64,54,29.09,28.91,8,2,8,0.00
2013-2-7,55.0,48.0,42.4,43.6,38.7,36.6,87,71,56,28.91,28.85,6,2,6,0.00
2013-2-8,43.2,42.7,42.4,31.6,31.5,31.5,65,64,64,28.97,28.97,6,4,6,0.00
2013-2-9,46.9,42.7,39.6,25.1,24.5,23.4,55,48,40,29.23,29.17,3,1,3,0.00
2013-2-10,60.1,53.5,41.7,32.4,26.5,20.1,45,35,28,29.29,29.26,8,1,8,0.00
2013-2-11,53.8,51.8,44.1,44.5,41.3,26.6,75,68,50,29.26,29.03,22,7,22,0.00
2013-2-12,46.8,45.2,43.3,42.2,39.4,36.8,92,80,74,29.03,29.00,6,1,6,0.00
2013-2-13,63.3,54.3,46.0,41.2,37.6,33.8,77,55,38,29.14,29.06,15,2,15,0.00
2013-2-14,67.5,59.3,49.3,40.1,36.2,31.1,55,42,36,29.32,29.26,6,2,6,0.00
2013-2-15,55.6,49.5,45.5,42.2,39.0,36.4,79,68,50,29.35,29.35,8,1,8,0.00
2013-2-16,66.0,53.7,45.9,41.9,35.9,32.3,62,51,39,29.44,29.38,6,1,6,0.00
2013-2-17,62.6,53.3,46.4,37.6,35.0,32.2,63,51,38,29.44,29.35,7,1,7,0.00
2013-2-18,54.1,47.6,45.3,42.5,37.4,35.5,74,68,56,29.35,29.32,6,1,6,0.00
2013-2-19,59.4,49.3,42.1,32.3,30.9,29.4,66,50,36,29.35,29.32,6,1,6,0.00
2013-2-20,64.0,50.9,41.4,37.0,32.2,29.5,66,50,37,29.35,29.29,11,2,11,0.00
2013-2-21,56.8,50.0,43.5,40.8,36.8,31.0,70,61,50,29.17,29.09,4,1,4,0.00
2013-2-22,55.2,52.2,48.7,52.3,50.3,47.1,97,93,83,28.97,28.88,23,5,23,0.00
2013-2-23,54.7,53.3,51.4,50.9,49.8,47.6,96,88,84,29.03,28.94,20,7,20,0.00
2013-2-24,51.4,48.8,47.1,38.2,35.6,31.6,70,61,48,29.20,29.17,6,1,6,0.00
2013-2-25,60.6,49.3,43.9,45.0,36.8,32.1,83,63,47,29.41,29.38,8,1,8,0.00
2013-2-26,52.0,51.5,51.3,38.1,36.1,34.2,59,56,52,29.44,29.44,2,0,2,0.00
2013-2-28,64.9,59.8,49.1,40.6,37.7,35.2,65,44,38,29.62,29.53,10,3,10,0.00
2013-3-2,52.0,51.9,51.6,37.2,37.1,36.9,57,57,57,29.26,29.23,10,5,10,0.00
2013-3-3,63.0,53.9,49.1,39.5,37.6,35.4,69,55,39,29.44,29.38,4,0,4,0.00
2013-3-4,66.6,65.8,65.1,43.1,42.6,41.8,43,43,42,29.53,29.50,7,4,7,0.00
2013-3-5,58.3,56.5,55.4,36.9,35.0,33.4,46,44,42,29.47,29.41,8,2,8,0.00
2013-3-6,54.1,54.1,54.1,50.4,50.3,50.0,87,87,86,29.23,29.23,21,10,21,0.00
2013-3-7,59.9,56.8,55.6,57.7,55.7,55.0,98,96,90,29.20,29.14,8,3,8,0.00
2013-3-8,55.2,55.2,55.2,54.7,54.7,54.7,98,98,98,29.12,29.12,3,2,3,0.00
2013-3-9,68.7,60.0,55.9,55.1,51.2,46.6,95,74,48,29.17,29.12,13,4,13,0.00
2013-3-10,68.9,58.9,54.3,54.8,52.2,48.4,97,80,50,29.12,29.03,13,4,13,0.00
2013-3-11,64.2,58.5,54.7,54.1,50.6,46.6,90,75,58,29.06,29.00,13,5,13,0.00
2013-3-12,56.1,52.9,50.7,52.6,46.2,43.1,94,78,70,28.97,28.94,20,8,20,0.00
2013-3-13,58.3,52.3,49.8,52.5,48.7,45.2,98,88,68,28.91,28.67,20,6,20,0.00
2013-3-14,52.5,50.4,49.5,46.1,45.0,44.4,85,82,77,28.52,28.50,3,0,3,0.00
2013-3-15,49.6,43.7,41.0,44.4,27.9,24.7,82,54,50,29.17,28.88,10,4,10,0.00
2013-3-16,58.8,51.7,42.8,30.6,27.4,24.4,52,39,33,29.50,29.44,8,2,8,0.00
2013-3-17,52.7,51.8,51.3,41.4,37.2,32.6,68,58,47,29.44,29.32,9,4,9,0.00
2013-3-18,57.6,57.0,55.2,55.3,52.9,47.8,94,86,76,29.12,28.97,20,5,20,0.00
2013-3-19,64.8,56.1,48.7,42.4,39.8,37.9,72,55,42,29.20,29.20,12,2,12,0.00
2013-3-20,65.3,60.5,50.2,41.2,35.3,29.4,71,40,28,29.14,29.12,6,2,6,0.00
2013-3-21,64.6,56.7,32.0,46.2,43.9,32.0,76,62,46,29.32,0.00,12,2,12,0.00
2013-3-22,67.3,60.1,52.3,46.7,43.5,38.1,75,55,38,29.32,29.29,11,2,11,0.00
2013-3-23,68.5,61.4,53.4,43.3,38.2,35.1,50,42,37,29.23,29.20,6,2,6,0.00
2013-3-24,76.6,69.8,62.2,43.4,34.3,-10.6,50,30,3,29.06,28.91,20,6,20,0.00
2013-3-25,63.7,57.3,54.7,51.1,48.8,44.1,87,74,55,28.85,28.73,11,4,11,0.00
2013-3-26,61.2,57.8,54.3,52.3,48.9,45.6,82,73,61,28.97,28.97,15,4,15,0.00
2013-3-27,60.4,55.6,52.0,51.8,48.7,39.3,88,78,57,29.17,29.09,11,5,11,0.00
2013-3-28,60.1,57.8,56.3,55.1,54.1,51.4,93,87,81,29.29,29.26,11,4,11,0.00
2013-3-29,69.6,64.5,57.6,55.1,51.7,48.2,91,65,49,29.26,29.23,10,4,10,0.00
2013-3-30,57.4,57.2,57.0,54.5,54.2,54.0,91,90,89,29.12,29.12,6,3,6,0.00
2013-4-1,66.7,63.1,61.2,47.2,44.6,41.2,58,51,45,29.17,29.14,11,4,11,0.00
2013-4-2,54.5,52.3,51.1,52.7,49.9,48.4,96,92,82,28.94,28.79,13,4,13,0.00
2013-4-3,65.8,64.1,62.8,46.7,45.8,44.4,53,51,49,29.09,29.09,10,4,10,0.00
2013-4-4,65.1,63.8,58.1,49.1,40.3,37.4,72,43,36,29.20,29.03,6,1,6,0.00
2013-4-5,57.7,57.0,56.1,51.1,50.0,49.0,83,78,73,29.17,29.14,4,1,4,0.00
2013-4-6,71.8,66.8,62.1,52.4,49.0,46.1,63,53,46,29.20,29.17,10,3,10,0.00
2013-4-9,68.9,66.6,63.1,49.9,47.3,44.9,56,50,45,29.35,29.32,10,5,10,0.00
2013-4-10,68.2,63.1,57.9,53.8,51.9,49.7,84,67,56,29.38,29.38,12,5,12,0.00
2013-4-11,70.2,66.9,60.3,51.9,49.4,47.2,71,53,48,29.47,29.44,10,4,10,0.00
2013-4-12,72.1,66.3,59.0,52.9,49.9,47.3,74,56,43,29.44,29.41,15,5,15,0.00
2013-4-13,71.8,69.0,66.0,57.5,53.5,50.7,70,58,51,29.59,29.56,9,4,9,0.00
2013-4-14,79.7,73.8,66.2,56.9,53.4,48.9,68,50,38,29.74,29.65,8,2,8,0.00
2013-4-15,82.0,75.8,65.8,42.8,37.1,27.3,33,25,14,29.62,29.53,8,2,8,0.00
2013-4-16,73.8,72.0,63.1,50.3,48.8,44.7,51,44,42,29.56,29.53,6,2,6,0.00
2013-4-17,81.7,71.9,57.7,40.4,32.9,-16.3,44,27,2,29.62,29.56,6,1,6,0.00
2013-4-18,82.6,73.5,62.8,52.8,42.6,24.2,68,35,12,29.56,29.44,6,2,6,0.00
2013-4-19,73.4,71.4,66.7,56.8,55.0,52.9,70,56,51,29.44,29.38,9,3,9,0.00
2013-4-20,69.3,65.4,61.9,57.9,56.0,54.2,79,72,66,29.41,29.38,10,4,10,0.00
2013-4-21,73.0,64.4,57.7,48.0,43.3,39.9,63,47,36,29.44,29.38,11,3,11,0.00
2013-4-22,68.5,62.1,52.0,56.4,45.2,39.2,93,55,44,29.38,29.32,10,3,10,0.00
2013-4-23,74.5,68.6,61.7,50.5,45.6,39.3,62,44,31,29.62,29.53,9,3,9,0.00
2013-4-24,83.8,78.4,72.5,50.9,47.7,45.7,40,34,31,29.68,29.65,6,3,6,0.00
2013-4-25,89.2,82.2,70.9,53.5,43.4,34.1,35,26,16,29.65,29.56,6,2,6,0.00
2013-4-27,65.8,60.9,57.2,57.2,54.9,49.0,96,81,60,29.32,29.23,15,4,15,0.00
2013-4-28,87.1,81.0,73.2,51.0,47.5,43.3,35,31,28,29.35,29.35,6,2,6,0.00
2013-4-29,87.8,86.3,84.7,50.2,47.9,43.5,30,26,23,29.44,29.41,10,4,10,0.00
2013-4-30,84.0,79.9,73.9,47.3,42.7,36.2,30,27,22,29.47,29.44,7,2,7,0.00
2013-5-1,91.4,82.7,64.9,53.3,40.9,-12.1,50,26,2,29.50,29.41,10,2,10,0.00
2013-5-2,87.4,80.5,68.7,59.3,54.8,50.0,68,42,30,29.35,29.32,8,3,8,0.00
2013-5-3,84.4,80.6,74.7,59.3,55.1,50.2,57,42,33,29.35,29.32,10,3,10,0.00
2013-5-4,80.4,73.8,70.3,55.3,53.0,51.8,59,49,38,29.35,29.32,3,1,3,0.00
2013-5-5,83.5,75.5,65.7,58.3,55.5,49.7,70,51,33,29.35,29.32,4,1,4,0.00
2013-5-6,73.4,66.9,61.0,60.5,55.5,52.7,79,67,58,29.41,29.38,13,4,13,0.00
2013-5-7,72.1,67.5,63.1,57.6,55.7,52.6,81,66,54,29.44,29.41,10,4,10,0.00
2013-5-8,76.3,70.5,63.0,57.8,54.5,50.5,80,58,43,29.35,29.32,10,3,10,0.00
2013-5-9,81.3,76.2,66.0,59.3,55.0,51.7,78,49,40,29.38,29.35,8,3,8,0.00
2013-5-10,71.8,68.2,67.3,59.0,56.2,55.0,68,66,64,29.38,29.35,4,2,4,0.00
2013-5-13,80.1,72.8,65.1,57.9,52.2,47.9,65,49,38,29.35,29.32,11,2,11,0.00
2013-5-14,80.4,71.3,60.1,52.9,46.9,36.3,69,44,22,29.41,29.32,9,2,9,0.00
2013-5-15,67.3,66.1,64.9,57.1,54.7,48.7,73,67,56,29.23,29.14,8,2,8,0.00
2013-5-16,72.7,68.3,64.2,60.6,55.8,50.9,81,65,48,29.06,28.94,16,5,16,0.00
2013-5-17,72.9,66.8,61.0,62.2,54.7,49.3,92,66,46,29.32,29.09,13,6,13,0.00
2013-5-18,79.7,75.3,70.3,55.3,48.0,43.2,59,39,31,29.41,29.26,12,3,12,0.00
2013-5-19,70.7,64.0,61.0,57.2,46.5,43.6,75,53,42,29.50,29.35,12,4,12,0.00
2013-5-25,60.3,60.2,60.1,41.6,41.5,41.2,50,50,50,29.32,29.32,9,7,9,0.00
2013-5-26,65.7,61.8,58.8,47.9,43.4,40.6,67,52,42,29.41,29.38,12,4,12,0.00
2013-5-27,70.9,62.3,58.8,46.5,45.9,45.4,63,56,42,29.44,29.38,6,1,6,0.00
2013-5-28,79.9,79.8,79.3,49.0,48.9,48.2,34,34,34,29.12,29.12,4,3,4,0.00
2013-5-29,74.8,67.5,61.0,59.0,55.3,51.1,83,66,48,29.17,29.14,12,5,12,0.00
2013-5-30,65.3,63.7,63.1,53.2,48.8,43.0,69,59,48,29.20,29.17,9,3,9,0.00
2013-5-31,68.5,63.3,60.1,56.0,51.5,46.9,83,66,50,29.20,29.17,18,6,18,0.00
2013-6-1,62.8,59.5,57.4,59.7,55.1,52.9,94,85,76,29.17,29.12,9,1,9,0.00
2013-6-2,66.9,66.3,65.1,55.7,55.5,54.9,70,68,66,29.32,29.32,7,3,7,0.00
2013-6-3,75.9,71.8,67.5,57.0,53.9,50.3,64,54,46,29.35,29.32,13,5,13,0.00
2013-6-5,76.8,70.9,63.5,61.5,57.7,53.2,82,64,49,29.44,29.44,11,3,11,0.00
2013-6-6,83.1,77.2,67.8,62.8,58.6,55.5,67,53,43,29.47,29.41,9,2,9,0.00
2013-6-7,89.8,86.0,81.0,56.3,55.0,52.7,40,35,30,29.41,29.38,4,1,4,0.00
2013-6-8,76.6,76.3,75.9,63.7,62.7,61.7,65,63,60,29.44,29.41,9,3,9,0.00
2013-6-9,82.0,76.7,72.3,62.1,53.8,46.4,61,45,36,29.38,29.29,9,3,9,0.00
2013-6-10,80.4,73.1,69.1,62.2,57.0,49.9,75,58,43,29.32,29.29,8,2,8,0.00
2013-6-11,78.6,72.1,66.2,62.7,57.6,51.3,88,64,44,29.35,29.32,8,2,8,0.00
2013-6-12,84.6,77.5,69.6,55.5,53.1,50.5,57,43,36,29.41,29.38,10,1,10,0.00
2013-6-13,91.2,84.5,72.9,54.7,51.1,46.8,41,32,28,29.41,29.38,7,1,7,0.00
2013-6-14,84.7,81.3,78.3,65.4,59.0,53.3,62,47,38,29.44,29.44,8,3,8,0.00
2013-6-16,82.6,81.6,81.0,65.7,64.5,62.4,58,56,53,29.50,29.50,6,2,6,0.00
2013-6-17,91.9,90.5,89.6,62.7,61.8,60.7,39,38,38,29.47,29.44,5,2,5,0.00
2013-6-18,95.5,93.5,90.7,69.2,66.4,63.2,49,41,36,29.44,29.44,5,2,5,0.00
2013-6-19,93.2,89.4,80.2,67.1,63.5,55.9,47,42,38,29.44,29.41,6,2,6,0.00
2013-6-20,94.3,92.7,91.4,65.7,65.0,64.2,42,40,38,29.44,29.44,6,3,6,0.00
2013-6-21,94.8,88.7,32.0,67.4,62.6,32.0,53,41,33,29.44,29.44,6,2,6,0.00
2013-6-23,86.0,81.3,78.8,67.9,66.0,63.0,67,60,50,29.44,29.44,6,2,6,0.00
2013-6-24,73.4,69.6,67.6,62.0,58.0,55.8,68,66,65,29.35,29.35,6,2,6,0.00
2013-6-25,81.9,75.2,67.1,59.5,55.7,53.0,69,52,41,29.44,29.38,10,3,10,0.00
2013-6-26,83.1,75.5,67.1,62.6,56.8,49.2,76,53,41,29.47,29.44,10,2,10,0.00
2013-6-27,83.5,75.7,67.3,57.3,54.7,51.0,70,49,41,29.47,29.44,9,2,9,0.00
2013-6-28,79.9,75.1,69.3,60.0,57.8,55.2,68,55,48,29.47,29.41,12,5,12,0.00
2013-6-29,81.1,77.4,73.0,56.4,54.4,52.5,50,45,41,29.38,29.38,4,1,4,0.00
2013-6-30,84.7,81.0,78.4,53.5,50.4,47.6,35,34,33,29.44,29.44,12,2,12,0.00
2013-7-1,86.5,80.5,70.9,59.0,56.0,53.0,65,44,37,29.53,29.47,10,2,10,0.00
2013-7-3,77.9,73.5,70.0,59.8,56.2,53.4,68,55,44,29.41,29.38,2,0,2,0.00
2013-7-4,83.3,76.8,72.9,62.1,60.9,58.6,66,58,47,29.44,29.44,4,1,4,0.00
2013-7-9,82.8,82.4,82.0,56.7,56.3,56.0,41,41,41,29.44,29.44,3,3,3,0.00
2013-7-22,99.3,92.8,84.6,59.9,57.6,55.1,41,31,26,29.38,29.35,10,3,10,0.00
2013-7-26,92.1,91.0,90.3,73.2,71.3,68.3,57,53,47,29.44,29.44,8,5,8,0.00
2013-7-30,92.7,85.6,79.5,68.4,63.1,57.0,68,49,32,29.35,29.35,7,2,7,0.00
2013-8-4,96.8,91.0,85.1,62.0,59.4,57.2,42,35,31,29.44,29.44,4,1,4,0.00
2013-8-6,94.1,90.7,87.1,75.6,74.4,72.3,67,59,51,29.44,29.44,8,4,8,0.00
2013-8-7,98.1,93.3,84.4,75.7,73.2,69.8,68,53,46,29.38,29.35,6,2,6,0.00
2013-9-19,87.1,79.8,74.5,62.8,59.1,53.5,65,50,41,29.20,29.17,10,3,10,0.00
2013-11-5,69.8,67.4,65.1,60.1,56.8,54.2,76,69,61,28.85,28.82,12,2,12,0.00
2013-11-9,76.1,72.1,69.3,62.2,61.0,59.2,77,68,61,29.47,29.47,6,2,6,0.00
2013-11-11,70.5,59.2,54.5,52.9,46.4,42.0,81,64,42,29.00,28.82,10,2,10,0.00
2013-11-12,62.6,61.0,59.9,50.6,49.7,48.4,70,66,60,29.32,29.26,4,1,4,0.00
2013-11-13,70.7,64.7,62.2,52.1,49.9,47.9,67,59,48,29.32,29.26,10,4,10,0.00
2013-11-14,78.1,67.0,58.5,52.5,46.6,44.3,64,48,38,29.38,29.32,6,2,6,0.00
2013-11-15,67.3,63.1,61.0,56.9,53.3,50.7,80,70,64,29.35,29.29,7,1,7,0.00
2013-11-17,77.9,74.0,59.7,52.7,50.8,47.8,71,45,40,29.56,29.50,6,2,6,0.00
2013-11-18,65.7,64.5,63.7,52.2,48.7,47.1,63,57,53,29.32,29.20,11,3,11,0.00
2013-11-19,66.2,64.2,63.5,57.3,55.4,54.7,74,73,73,29.03,29.03,13,7,13,0.00
2013-11-20,68.5,62.6,56.8,52.3,47.2,44.9,67,57,50,29.14,29.12,10,3,10,0.00
2013-11-21,64.9,57.8,51.4,47.6,39.0,32.5,75,51,36,29.09,28.97,15,5,15,0.00
2013-11-22,55.6,54.8,52.2,49.6,46.7,44.6,91,74,67,28.94,28.88,6,4,6,0.00
2013-11-23,59.9,54.5,49.5,47.8,40.3,36.8,78,59,44,28.97,28.94,16,4,16,0.00
2013-11-24,50.9,48.4,46.6,41.7,40.4,39.4,78,74,65,29.06,29.00,3,0,3,0.00
2013-11-25,63.7,47.8,37.8,38.6,33.5,29.9,87,60,39,29.23,29.12,13,5,13,0.00
2013-11-26,55.6,46.3,41.2,29.1,24.6,22.4,51,43,36,29.32,29.23,6,2,6,0.00
2013-11-27,51.1,46.5,44.2,28.6,26.9,26.1,50,46,41,29.59,29.47,6,3,6,0.00
2013-11-28,46.4,45.4,44.4,41.0,39.6,37.2,83,80,74,29.68,29.59,6,2,6,0.00
2013-11-29,68.0,65.0,62.2,41.5,39.9,38.0,41,40,38,29.56,29.50,4,2,4,0.00
2013-11-30,54.3,53.3,52.7,42.9,42.0,41.0,68,65,63,29.20,29.17,8,2,8,0.00
2013-12-1,57.7,55.1,53.1,46.3,44.0,42.4,74,66,60,29.09,29.00,13,7,13,0.00
2013-12-2,58.1,55.5,53.6,55.8,53.3,51.7,95,92,84,29.44,29.32,6,1,6,0.00
2013-12-3,66.6,59.2,51.4,41.5,37.0,32.2,54,44,36,29.59,29.47,13,5,13,0.00
2013-12-4,69.3,57.2,48.0,39.6,36.5,32.1,70,48,32,29.62,29.56,4,1,4,0.00
2013-12-5,67.1,58.1,47.1,48.6,42.7,38.2,78,58,45,29.59,29.53,4,0,4,0.00
2013-12-6,53.4,52.8,52.2,42.3,41.7,41.2,69,66,63,29.35,29.35,1,0,1,0.00
2013-12-8,69.8,65.1,55.9,45.8,43.7,41.6,64,46,42,29.76,29.76,5,2,5,0.00
2013-12-9,57.9,54.7,51.6,50.5,47.5,46.5,91,77,67,29.82,29.79,2,0,2,0.00
2013-12-10,71.4,61.3,53.8,42.9,38.3,35.2,53,43,34,29.88,29.82,8,3,8,0.00
2013-12-11,65.5,54.7,51.3,38.9,37.7,37.0,59,53,37,29.91,29.88,4,0,4,0.00
2013-12-12,67.8,58.6,49.3,44.7,42.4,38.6,76,56,43,29.85,29.76,4,0,4,0.00
2013-12-13,66.6,60.4,51.1,44.0,41.2,38.0,72,50,41,29.71,29.65,5,1,5,0.00
2013-12-14,65.3,64.5,63.7,42.8,41.9,41.3,46,44,42,29.76,29.74,4,2,4,0.00
2013-12-15,52.7,51.8,50.2,35.9,35.3,34.8,56,53,52,29.85,29.82,4,2,4,0.00
2013-12-16,68.7,57.6,47.1,38.1,34.1,30.5,55,42,32,29.91,29.85,3,1,3,0.00
2013-12-17,68.5,56.6,48.4,31.7,29.3,24.9,48,36,24,29.79,29.79,3,1,3,0.00
2013-12-18,48.7,46.9,44.8,38.7,37.5,36.3,77,70,62,29.68,29.68,0,0,0,0.00
2013-12-19,55.2,49.1,48.4,41.4,41.1,40.7,76,74,58,29.62,29.59,1,0,1,0.00
2013-12-20,69.1,63.0,51.6,45.3,43.9,41.2,74,51,41,29.79,29.71,9,3,9,0.00
2013-12-21,68.9,61.2,56.7,44.2,37.0,33.6,43,40,38,29.94,29.91,2,2,2,0.00
2013-12-22,66.0,58.0,47.3,45.2,38.8,34.9,68,49,39,29.91,29.82,5,1,5,0.00
2013-12-23,55.6,49.1,45.3,36.4,35.3,34.1,68,59,47,29.68,29.65,1,0,1,0.00
2013-12-24,69.6,64.7,54.9,54.2,42.9,39.7,66,46,38,29.62,29.56,4,0,4,0.00
2013-12-26,52.2,52.2,52.2,44.8,44.7,44.5,76,76,75,28.85,28.85,10,8,10,0.00
2013-12-27,53.2,52.2,51.8,48.5,47.8,47.3,85,85,84,29.12,29.12,0,0,0,0.00
2013-12-28,67.3,58.5,48.2,42.9,41.2,38.0,80,55,39,29.47,29.41,6,1,6,0.00
2013-12-29,66.6,60.3,55.9,51.5,48.1,44.7,79,65,54,29.53,29.50,6,1,6,0.00
2013-12-30,57.2,55.7,54.1,50.9,49.5,47.6,86,79,74,29.53,29.47,4,1,4,0.00
2013-12-31,68.2,61.9,52.0,46.0,41.7,37.5,63,48,41,29.44,29.41,6,2,6,0.00
2014-1-1,65.5,57.3,49.5,47.7,44.0,40.4,82,62,48,29.53,29.47,4,0,4,0.00
2014-1-2,57.4,55.0,53.2,53.1,47.5,41.4,95,77,55,29.50,29.47,6,2,6,0.00